Time,TemperatureF,DewpointF,PressureIn,WindDirection,WindDirectionDegrees,WindSpeedMPH,WindSpeedGustMPH,Humidity,HourlyPrecipIn,Conditions,Clouds,dailyrainin,SoftwareType,DateUTC
2013-03-19 00:07:00,27.2,21.0,30.06,SE,144,0.0,0.0,76,0.00,,,0.00,weatherlink.com 1.10,2013-03-19 07:07:00,
2013-03-19 00:22:00,26.9,20.0,30.06,SE,143,0.0,0.0,76,0.00,,,0.00,weatherlink.com 1.10,2013-03-19 07:22:00,
2013-03-19 00:37:00,26.6,20.0,30.05,SE,143,0.0,0.0,75,0.00,,,0.00,weatherlink.com 1.10,2013-03-19 07:37:00,
2013-03-19 00:52:00,26.3,20.0,30.04,SE,143,0.0,0.0,77,0.00,,,0.00,weatherlink.com 1.10,2013-03-19 07:52:00,
2013-03-19 01:07:00,26.0,20.0,30.04,SE,143,0.0,0.0,79,0.00,,,0.00,weatherlink.com 1.10,2013-03-19 08:07:00,
2013-03-19 01:22:00,25.8,20.0,30.04,SE,143,0.0,0.0,79,0.00,,,0.00,weatherlink.com 1.10,2013-03-19 08:22:00,
2013-03-19 01:37:00,25.5,20.0,30.04,SE,143,0.0,0.0,78,0.00,,,0.00,weatherlink.com 1.10,2013-03-19 08:37:00,
2013-03-19 01:52:00,25.4,19.0,30.04,SE,143,0.0,0.0,78,0.00,,,0.00,weatherlink.com 1.10,2013-03-19 08:52:00,
2013-03-19 02:09:00,25.6,21.0,30.04,SE,143,0.0,0.0,81,0.00,,,0.00,weatherlink.com 1.10,2013-03-19 09:09:00,
2013-03-19 02:22:00,25.7,20.0,30.03,SE,143,0.0,0.0,79,0.00,,,0.00,weatherlink.com 1.10,2013-03-19 09:22:00,
2013-03-19 02:37:00,25.4,20.0,30.03,SE,143,0.0,0.0,80,0.00,,,0.00,weatherlink.com 1.10,2013-03-19 09:37:00,
2013-03-19 02:52:00,25.5,20.0,30.03,SE,143,0.0,0.0,80,0.00,,,0.00,weatherlink.com 1.10,2013-03-19 09:52:00,
2013-03-19 03:07:00,25.8,20.0,30.03,SE,144,0.0,0.0,80,0.00,,,0.00,weatherlink.com 1.10,2013-03-19 10:07:00,
2013-03-19 03:22:00,26.0,21.0,30.02,SE,143,0.0,0.0,80,0.00,,,0.00,weatherlink.com 1.10,2013-03-19 10:22:00,
2013-03-19 03:37:00,26.3,21.0,30.02,SE,143,0.0,0.0,79,0.00,,,0.00,weatherlink.com 1.10,2013-03-19 10:37:00,
2013-03-19 03:53:00,26.5,21.0,30.01,SE,144,0.0,0.0,79,0.00,,,0.00,weatherlink.com 1.10,2013-03-19 10:53:00,
2013-03-19 04:08:00,26.7,21.0,30.01,SE,143,0.0,0.0,79,0.00,,,0.00,weatherlink.com 1.10,2013-03-19 11:08:00,
2013-03-19 04:23:00,26.7,21.0,30.01,SSE,153,1.0,1.0,80,0.00,,,0.00,weatherlink.com 1.10,2013-03-19 11:23:00,
2013-03-19 04:38:00,26.8,22.0,30.01,SSE,152,0.0,1.0,81,0.00,,,0.00,weatherlink.com 1.10,2013-03-19 11:38:00,
2013-03-19 04:53:00,27.0,22.0,30.01,SSE,152,0.0,1.0,80,0.00,,,0.00,weatherlink.com 1.10,2013-03-19 11:53:00,
2013-03-19 05:08:00,27.0,22.0,30.01,SSE,152,0.0,0.0,80,0.00,,,0.00,weatherlink.com 1.10,2013-03-19 12:08:00,
2013-03-19 05:23:00,27.2,22.0,30.01,SSE,152,0.0,0.0,81,0.00,,,0.00,weatherlink.com 1.10,2013-03-19 12:23:00,
2013-03-19 05:38:00,27.5,22.0,30.01,SSE,152,0.0,0.0,81,0.00,,,0.00,weatherlink.com 1.10,2013-03-19 12:38:00,
2013-03-19 05:54:00,27.7,23.0,30.02,SSE,152,0.0,0.0,81,0.00,,,0.00,weatherlink.com 1.10,2013-03-19 12:54:00,
2013-03-19 06:08:00,27.8,23.0,30.02,SSE,153,0.0,1.0,81,0.00,,,0.00,weatherlink.com 1.10,2013-03-19 13:08:00,
2013-03-19 06:23:00,27.9,23.0,30.01,SSE,152,0.0,1.0,82,0.00,,,0.00,weatherlink.com 1.10,2013-03-19 13:23:00,
2013-03-19 06:38:00,28.2,23.0,30.01,SSE,148,0.0,0.0,82,0.00,,,0.00,weatherlink.com 1.10,2013-03-19 13:38:00,
2013-03-19 06:53:00,27.9,23.0,30.01,SSE,148,0.0,0.0,81,0.00,,,0.00,weatherlink.com 1.10,2013-03-19 13:53:00,
2013-03-19 07:08:00,27.7,23.0,30.00,SSE,148,0.0,0.0,81,0.00,,,0.00,weatherlink.com 1.10,2013-03-19 14:08:00,
2013-03-19 07:23:00,27.7,23.0,30.01,SSE,148,0.0,0.0,81,0.00,,,0.00,weatherlink.com 1.10,2013-03-19 14:23:00,
2013-03-19 07:38:00,27.9,23.0,30.01,SSE,148,0.0,0.0,82,0.00,,,0.00,weatherlink.com 1.10,2013-03-19 14:38:00,
2013-03-19 07:53:00,28.5,24.0,30.01,SSE,148,0.0,0.0,84,0.00,,,0.00,weatherlink.com 1.10,2013-03-19 14:53:00,
2013-03-19 08:08:00,29.1,24.0,30.01,SSE,148,0.0,0.0,82,0.00,,,0.00,weatherlink.com 1.10,2013-03-19 15:08:00,
2013-03-19 08:23:00,29.6,24.0,30.01,SE,143,0.0,0.0,80,0.00,,,0.00,weatherlink.com 1.10,2013-03-19 15:23:00,
2013-03-19 08:38:00,30.1,24.0,30.01,SE,128,0.0,2.0,77,0.00,,,0.00,weatherlink.com 1.10,2013-03-19 15:38:00,
2013-03-19 08:53:00,30.6,24.0,30.01,SE,128,0.0,2.0,77,0.00,,,0.00,weatherlink.com 1.10,2013-03-19 15:53:00,
2013-03-19 09:08:00,31.2,24.0,30.01,ESE,121,1.0,2.0,74,0.00,,,0.00,weatherlink.com 1.10,2013-03-19 16:08:00,
2013-03-19 09:23:00,32.1,24.0,30.00,SSE,163,0.0,2.0,72,0.00,,,0.00,weatherlink.com 1.10,2013-03-19 16:23:00,
2013-03-19 09:38:00,33.3,24.0,30.00,SE,142,1.0,1.0,68,0.00,,,0.00,weatherlink.com 1.10,2013-03-19 16:38:00,
2013-03-19 09:53:00,34.3,24.0,30.00,East,101,0.0,2.0,66,0.00,,,0.00,weatherlink.com 1.10,2013-03-19 16:53:00,
2013-03-19 10:08:00,35.1,24.0,30.00,ESE,108,1.0,2.0,65,0.00,,,0.00,weatherlink.com 1.10,2013-03-19 17:08:00,
2013-03-19 10:23:00,36.1,25.0,29.99,ENE,77,2.0,3.0,64,0.00,,,0.00,weatherlink.com 1.10,2013-03-19 17:23:00,
2013-03-19 10:38:00,37.6,25.0,29.99,SSE,150,0.0,2.0,62,0.00,,,0.00,weatherlink.com 1.10,2013-03-19 17:38:00,
2013-03-19 10:53:00,39.1,25.0,29.98,SE,146,0.0,1.0,58,0.00,,,0.00,weatherlink.com 1.10,2013-03-19 17:53:00,
2013-03-19 11:08:00,41.3,25.0,29.97,SE,143,0.0,1.0,53,0.00,,,0.00,weatherlink.com 1.10,2013-03-19 18:08:00,
2013-03-19 11:24:00,42.7,23.0,29.97,ENE,77,0.0,2.0,46,0.00,,,0.00,weatherlink.com 1.10,2013-03-19 18:24:00,
2013-03-19 11:39:00,44.0,23.0,29.97,SE,126,1.0,2.0,44,0.00,,,0.00,weatherlink.com 1.10,2013-03-19 18:39:00,
2013-03-19 11:54:00,45.9,21.0,29.96,ESE,117,0.0,3.0,38,0.00,,,0.00,weatherlink.com 1.10,2013-03-19 18:54:00,
2013-03-19 12:09:00,46.6,23.0,29.95,South,169,0.0,3.0,39,0.00,,,0.00,weatherlink.com 1.10,2013-03-19 19:09:00,
2013-03-19 12:24:00,47.1,24.0,29.95,SSW,194,3.0,3.0,40,0.00,,,0.00,weatherlink.com 1.10,2013-03-19 19:24:00,
2013-03-19 12:39:00,47.8,24.0,29.94,SE,131,1.0,5.0,40,0.00,,,0.00,weatherlink.com 1.10,2013-03-19 19:39:00,
2013-03-19 12:54:00,48.1,24.0,29.94,SE,126,1.0,3.0,39,0.00,,,0.00,weatherlink.com 1.10,2013-03-19 19:54:00,
2013-03-19 13:09:00,49.2,26.0,29.93,SSE,149,0.0,2.0,40,0.00,,,0.00,weatherlink.com 1.10,2013-03-19 20:09:00,
2013-03-19 13:24:00,50.6,27.0,29.92,NE,54,2.0,7.0,40,0.00,,,0.00,weatherlink.com 1.10,2013-03-19 20:24:00,
2013-03-19 13:39:00,51.0,27.0,29.92,ESE,108,1.0,5.0,39,0.00,,,0.00,weatherlink.com 1.10,2013-03-19 20:39:00,
2013-03-19 13:54:00,51.0,28.0,29.91,SE,125,0.0,3.0,42,0.00,,,0.00,weatherlink.com 1.10,2013-03-19 20:54:00,
2013-03-19 14:09:00,53.6,28.0,29.89,SE,139,1.0,8.0,38,0.00,,,0.00,weatherlink.com 1.10,2013-03-19 21:09:00,
2013-03-19 14:24:00,53.7,30.0,29.89,NE,48,1.0,7.0,41,0.00,,,0.00,weatherlink.com 1.10,2013-03-19 21:24:00,
2013-03-19 14:39:00,53.7,31.0,29.88,NNE,16,3.0,6.0,42,0.00,,,0.00,weatherlink.com 1.10,2013-03-19 21:39:00,
2013-03-19 14:54:00,54.0,31.0,29.87,SW,219,5.0,7.0,42,0.00,,,0.00,weatherlink.com 1.10,2013-03-19 21:54:00,
2013-03-19 15:09:00,53.5,32.0,29.86,East,92,0.0,6.0,44,0.00,,,0.00,weatherlink.com 1.10,2013-03-19 22:09:00,
2013-03-19 15:24:00,52.8,33.0,29.86,SSE,166,1.0,7.0,47,0.00,,,0.00,weatherlink.com 1.10,2013-03-19 22:24:00,
2013-03-19 15:39:00,52.9,33.0,29.85,ESE,105,3.0,4.0,48,0.00,,,0.00,weatherlink.com 1.10,2013-03-19 22:39:00,
2013-03-19 15:55:00,52.9,34.0,29.84,NE,54,2.0,6.0,49,0.00,,,0.00,weatherlink.com 1.10,2013-03-19 22:55:00,
2013-03-19 16:09:00,52.8,34.0,29.83,South,187,1.0,2.0,49,0.00,,,0.00,weatherlink.com 1.10,2013-03-19 23:09:00,
2013-03-19 16:25:00,52.6,34.0,29.83,South,183,1.0,2.0,49,0.00,,,0.00,weatherlink.com 1.10,2013-03-19 23:25:00,
2013-03-19 16:40:00,52.4,35.0,29.82,South,173,1.0,2.0,51,0.00,,,0.00,weatherlink.com 1.10,2013-03-19 23:40:00,
2013-03-19 17:10:00,49.9,37.0,29.82,SSE,166,1.0,7.0,61,0.00,,,0.00,weatherlink.com 1.10,2013-03-20 00:10:00,
2013-03-19 17:25:00,48.3,39.0,29.82,ESE,121,0.0,2.0,70,0.00,,,0.00,weatherlink.com 1.10,2013-03-20 00:25:00,
2013-03-19 17:40:00,46.5,41.0,29.82,SE,136,0.0,2.0,80,0.00,,,0.00,weatherlink.com 1.10,2013-03-20 00:40:00,
2013-03-19 17:55:00,45.5,41.0,29.82,SE,132,0.0,5.0,83,0.00,,,0.00,weatherlink.com 1.10,2013-03-20 00:55:00,
2013-03-19 18:10:00,44.6,41.0,29.81,ESE,108,0.0,3.0,87,0.00,,,0.00,weatherlink.com 1.10,2013-03-20 01:10:00,
2013-03-19 18:25:00,44.0,41.0,29.81,SSW,200,2.0,3.0,90,0.00,,,0.00,weatherlink.com 1.10,2013-03-20 01:25:00,
2013-03-19 18:40:00,43.7,41.0,29.80,SE,137,0.0,2.0,91,0.00,,,0.00,weatherlink.com 1.10,2013-03-20 01:40:00,
2013-03-19 18:55:00,43.5,41.0,29.78,NE,36,2.0,5.0,91,0.00,,,0.00,weatherlink.com 1.10,2013-03-20 01:55:00,
2013-03-19 19:10:00,43.3,41.0,29.77,ENE,75,2.0,7.0,91,0.00,,,0.00,weatherlink.com 1.10,2013-03-20 02:10:00,
2013-03-19 19:25:00,43.1,41.0,29.77,NE,48,1.0,6.0,91,0.00,,,0.00,weatherlink.com 1.10,2013-03-20 02:25:00,
2013-03-19 19:40:00,42.7,41.0,29.77,ESE,111,2.0,5.0,92,0.00,,,0.00,weatherlink.com 1.10,2013-03-20 02:40:00,
2013-03-19 19:55:00,42.4,41.0,29.77,ESE,114,0.0,4.0,93,0.00,,,0.00,weatherlink.com 1.10,2013-03-20 02:55:00,
2013-03-19 20:10:00,42.2,40.0,29.76,East,81,2.0,6.0,93,0.00,,,0.00,weatherlink.com 1.10,2013-03-20 03:10:00,
2013-03-19 20:25:00,42.1,41.0,29.75,SSW,207,2.0,11.0,94,0.00,,,0.00,weatherlink.com 1.10,2013-03-20 03:25:00,
2013-03-19 20:40:00,42.1,41.0,29.75,ENE,72,2.0,7.0,94,0.00,,,0.00,weatherlink.com 1.10,2013-03-20 03:40:00,
2013-03-19 20:55:00,42.3,41.0,29.75,East,87,1.0,7.0,93,0.00,,,0.00,weatherlink.com 1.10,2013-03-20 03:55:00,
2013-03-19 21:25:00,42.5,41.0,29.73,East,97,0.0,8.0,93,0.00,,,0.00,weatherlink.com 1.10,2013-03-20 04:25:00,
2013-03-19 21:40:00,42.6,41.0,29.73,NE,42,2.0,8.0,93,0.00,,,0.00,weatherlink.com 1.10,2013-03-20 04:40:00,
2013-03-19 21:55:00,42.5,41.0,29.73,North,4,3.0,10.0,94,0.00,,,0.00,weatherlink.com 1.10,2013-03-20 04:55:00,
2013-03-19 22:10:00,42.5,41.0,29.73,ENE,73,2.0,8.0,94,0.00,,,0.00,weatherlink.com 1.10,2013-03-20 05:10:00,
2013-03-19 22:25:00,42.5,41.0,29.73,ENE,65,2.0,4.0,94,0.00,,,0.00,weatherlink.com 1.10,2013-03-20 05:25:00,
2013-03-19 22:40:00,42.5,41.0,29.72,NE,44,3.0,6.0,93,0.00,,,0.00,weatherlink.com 1.10,2013-03-20 05:40:00,
2013-03-19 22:55:00,42.5,41.0,29.71,ENE,75,1.0,6.0,93,0.00,,,0.00,weatherlink.com 1.10,2013-03-20 05:55:00,
2013-03-19 23:10:00,42.4,41.0,29.71,SSE,162,1.0,5.0,93,0.00,,,0.00,weatherlink.com 1.10,2013-03-20 06:10:00,
2013-03-19 23:25:00,42.4,41.0,29.70,East,98,3.0,6.0,93,0.00,,,0.00,weatherlink.com 1.10,2013-03-20 06:25:00,
2013-03-19 23:40:00,42.4,40.0,29.71,NE,56,2.0,7.0,92,0.00,,,0.00,weatherlink.com 1.10,2013-03-20 06:40:00,
2013-03-19 23:55:00,42.2,40.0,29.71,NNE,23,2.0,5.0,93,0.00,,,0.00,weatherlink.com 1.10,2013-03-20 06:55:00,